Terminal Aerodrome Forecast
Issued by NWS

Home | Current Version | Previous Version | Text Only | Print | Product List | Glossary On
Versions: 1 2 3 4 5 6 7 8 9 10 11 12 13 14 15 16 17 18 19
000
FTUS43 KIWX 281500 AAA
TAFSBN
TAF AMD
KSBN 281532Z 2816/2912 21009KT 6SM -SN SCT030 OVC100
      TEMPO 2816/2818 1/2SM SN FG
     FM281900 18009KT P6SM SCT030 BKN070=

USA.gov is the U.S. government's official web portal to all federal, state and local government web resources and services.